Terminal Aerodrome Forecast
Issued by NWS Quad Cities IA IL

Home | Current Version | Previous Version | Text Only | Print | Product List | Glossary On
Versions: 1 2 3 4 5 6 7 8 9 10 11 12 13 14 15 16 17 18 19 20 21 22 23 24
000
FTUS43 KDVN 221402 AAA
TAFDBQ
TAF AMD
KDBQ 221402Z 2214/2312 14005KT 2SM BR OVC002
     FM221600 13006KT P6SM BKN050
     FM230100 VRB02KT P6SM BKN120
     FM230800 VRB02KT 2SM BR OVC100
      AMD NOT SKED=

USA.gov is the U.S. government's official web portal to all federal, state and local government web resources and services.